createdAt,value
2017-08-31T00:00:24.970Z,1002.12
2017-08-31T00:01:05.558Z,1002.13
2017-08-31T00:01:46.169Z,1002.14
2017-08-31T00:02:26.743Z,1002.13
2017-08-31T00:03:07.309Z,1002.09
2017-08-31T00:03:47.875Z,1002.11
2017-08-31T00:04:28.458Z,1002.08
2017-08-31T00:05:09.062Z,1002.08
2017-08-31T00:05:49.641Z,1002.07
2017-08-31T00:06:30.213Z,1002.05
2017-08-31T00:07:10.788Z,1002.03
2017-08-31T00:07:51.368Z,1002.03
2017-08-31T00:08:31.981Z,1002.02
2017-08-31T00:09:12.563Z,1002
2017-08-31T00:09:53.133Z,1001.97
2017-08-31T00:10:33.714Z,1001.95
2017-08-31T00:11:14.285Z,1001.96
2017-08-31T00:11:54.859Z,1001.93
2017-08-31T00:12:35.440Z,1001.92
2017-08-31T00:13:16.022Z,1001.95
2017-08-31T00:13:56.590Z,1001.97
2017-08-31T00:14:37.172Z,1001.99
2017-08-31T00:15:17.755Z,1002
2017-08-31T00:15:58.333Z,1002.03
2017-08-31T00:16:38.933Z,1001.99
2017-08-31T00:17:19.514Z,1002.01
2017-08-31T00:18:00.086Z,1001.97
2017-08-31T00:18:40.666Z,1001.98
2017-08-31T00:19:21.248Z,1001.96
2017-08-31T00:20:01.834Z,1001.93
2017-08-31T00:20:42.415Z,1001.9
2017-08-31T00:21:22.990Z,1002.01
2017-08-31T00:22:03.558Z,1001.97
2017-08-31T00:22:44.148Z,1001.96
2017-08-31T00:23:24.709Z,1002
2017-08-31T00:24:05.285Z,1001.97
2017-08-31T00:24:45.856Z,1001.95
2017-08-31T00:25:26.419Z,1001.88
2017-08-31T00:26:07.009Z,1001.85
2017-08-31T00:26:47.605Z,1001.8
2017-08-31T00:27:28.187Z,1001.82
2017-08-31T00:28:08.766Z,1001.84
2017-08-31T00:28:49.360Z,1001.8
2017-08-31T00:29:29.934Z,1001.86
2017-08-31T00:30:10.511Z,1001.86
2017-08-31T00:30:51.108Z,1001.84
2017-08-31T00:31:31.695Z,1001.87
2017-08-31T00:32:12.252Z,1001.88
2017-08-31T00:32:52.826Z,1001.88
2017-08-31T00:33:33.406Z,1001.83
2017-08-31T00:34:13.983Z,1001.81
2017-08-31T00:34:54.561Z,1001.8
2017-08-31T00:35:35.143Z,1001.81
2017-08-31T00:36:15.748Z,1001.79
2017-08-31T00:36:56.341Z,1001.83
2017-08-31T00:37:36.936Z,1001.8
2017-08-31T00:38:17.534Z,1001.86
2017-08-31T00:38:58.103Z,1001.85
2017-08-31T00:39:38.687Z,1001.85
2017-08-31T00:40:19.243Z,1001.84
2017-08-31T00:40:59.808Z,1001.86
2017-08-31T00:41:40.405Z,1001.89
2017-08-31T00:42:20.990Z,1001.89
2017-08-31T00:43:01.562Z,1001.86
2017-08-31T00:43:42.135Z,1001.91
2017-08-31T00:44:22.713Z,1001.96
2017-08-31T00:45:03.291Z,1001.93
2017-08-31T00:45:43.855Z,1002.02
2017-08-31T00:46:24.439Z,1002.05
2017-08-31T00:47:05.044Z,1002.08
2017-08-31T00:47:45.643Z,1002.11
2017-08-31T00:48:26.237Z,1002.08
2017-08-31T00:49:06.813Z,1002.12
2017-08-31T00:49:47.391Z,1002.12
2017-08-31T00:50:27.959Z,1002.12
2017-08-31T00:51:08.536Z,1002.14
2017-08-31T00:51:49.102Z,1002.16
2017-08-31T00:52:29.683Z,1002.21
2017-08-31T00:53:10.255Z,1002.21
2017-08-31T00:53:50.841Z,1002.23
2017-08-31T00:54:31.403Z,1002.24
2017-08-31T00:55:11.971Z,1002.29
2017-08-31T00:55:52.564Z,1002.31
2017-08-31T00:56:33.131Z,1002.34
2017-08-31T00:57:13.701Z,1002.35
2017-08-31T00:57:54.274Z,1002.31
2017-08-31T00:58:34.853Z,1002.37
2017-08-31T00:59:15.446Z,1002.34
2017-08-31T00:59:56.033Z,1002.4
2017-08-31T01:00:36.619Z,1002.39
2017-08-31T01:01:17.204Z,1002.43
2017-08-31T01:01:57.788Z,1002.4
2017-08-31T01:02:38.365Z,1002.41
2017-08-31T01:03:18.947Z,1002.43
2017-08-31T01:03:59.516Z,1002.42
2017-08-31T01:04:40.088Z,1002.45
2017-08-31T01:05:20.662Z,1002.41
2017-08-31T01:06:01.252Z,1002.39
2017-08-31T01:06:41.830Z,1002.48
2017-08-31T01:07:22.425Z,1002.41
2017-08-31T01:08:03.005Z,1002.45
2017-08-31T01:08:43.578Z,1002.44
2017-08-31T01:09:24.167Z,1002.45
2017-08-31T01:10:04.734Z,1002.45
2017-08-31T01:10:45.318Z,1002.46
2017-08-31T01:11:25.936Z,1002.44
2017-08-31T01:12:06.514Z,1002.45
2017-08-31T01:12:47.086Z,1002.49
2017-08-31T01:13:27.667Z,1002.45
2017-08-31T01:14:08.240Z,1002.44
2017-08-31T01:14:48.811Z,1002.44
2017-08-31T01:15:29.383Z,1002.44
2017-08-31T01:16:09.979Z,1002.48
2017-08-31T01:16:50.578Z,1002.46
2017-08-31T01:17:31.147Z,1002.51
2017-08-31T01:18:11.725Z,1002.48
2017-08-31T01:18:52.307Z,1002.46
2017-08-31T01:19:32.889Z,1002.47
2017-08-31T01:20:13.487Z,1002.43
2017-08-31T01:20:54.066Z,1002.43
2017-08-31T01:21:34.660Z,1002.46
2017-08-31T01:22:15.217Z,1002.46
2017-08-31T01:22:55.800Z,1002.48
2017-08-31T01:23:36.362Z,1002.52
2017-08-31T01:24:16.947Z,1002.48
2017-08-31T01:24:57.527Z,1002.49
2017-08-31T01:25:38.111Z,1002.5
2017-08-31T01:26:18.692Z,1002.5
2017-08-31T01:26:59.258Z,1002.47
2017-08-31T01:27:39.827Z,1002.48
2017-08-31T01:28:20.417Z,1002.52
2017-08-31T01:29:01.019Z,1002.52
2017-08-31T01:29:41.589Z,1002.56
2017-08-31T01:30:22.160Z,1002.56
2017-08-31T01:31:02.734Z,1002.5
2017-08-31T01:31:43.305Z,1002.53
2017-08-31T01:32:23.896Z,1002.54
2017-08-31T01:33:04.476Z,1002.55
2017-08-31T01:33:45.051Z,1002.56
2017-08-31T01:34:25.628Z,1002.57
2017-08-31T01:35:06.201Z,1002.55
2017-08-31T01:35:46.765Z,1002.58
2017-08-31T01:36:27.337Z,1002.54
2017-08-31T01:37:07.936Z,1002.55
2017-08-31T01:37:48.535Z,1002.53
2017-08-31T01:38:29.116Z,1002.54
2017-08-31T01:39:09.687Z,1002.52
2017-08-31T01:39:50.268Z,1002.5
2017-08-31T01:40:30.840Z,1002.48
2017-08-31T01:41:11.433Z,1002.56
2017-08-31T01:41:51.997Z,1002.57
2017-08-31T01:42:32.602Z,1002.56
2017-08-31T01:43:13.191Z,1002.61
2017-08-31T01:43:53.746Z,1002.6
2017-08-31T01:44:34.326Z,1002.6
2017-08-31T01:45:14.905Z,1002.6
2017-08-31T01:45:55.467Z,1002.57
2017-08-31T01:46:36.095Z,1002.56
2017-08-31T01:47:16.664Z,1002.58
2017-08-31T01:47:57.262Z,1002.61
2017-08-31T01:48:37.820Z,1002.62
2017-08-31T01:49:18.382Z,1002.6
2017-08-31T01:49:59.004Z,1002.61
2017-08-31T01:50:39.565Z,1002.65
2017-08-31T01:51:20.145Z,1002.62
2017-08-31T01:52:00.754Z,1002.63
2017-08-31T01:52:41.335Z,1002.63
2017-08-31T01:53:21.907Z,1002.64
2017-08-31T01:54:02.505Z,1002.65
2017-08-31T01:54:43.099Z,1002.66
2017-08-31T01:55:23.705Z,1002.63
2017-08-31T01:56:04.302Z,1002.61
2017-08-31T01:56:44.871Z,1002.6
2017-08-31T01:57:25.442Z,1002.59
2017-08-31T01:58:06.015Z,1002.59
2017-08-31T01:58:46.606Z,1002.56
2017-08-31T01:59:27.167Z,1002.64
2017-08-31T02:00:07.761Z,1002.64
2017-08-31T02:00:48.340Z,1002.63
2017-08-31T02:01:28.905Z,1002.65
2017-08-31T02:02:09.531Z,1002.64
2017-08-31T02:02:50.120Z,1002.67
2017-08-31T02:03:30.711Z,1002.69
2017-08-31T02:04:11.307Z,1002.69
2017-08-31T02:04:51.880Z,1002.73
2017-08-31T02:05:32.452Z,1002.78
2017-08-31T02:06:13.034Z,1002.77
2017-08-31T02:06:53.602Z,1002.81
2017-08-31T02:07:34.171Z,1002.79
2017-08-31T02:08:14.785Z,1002.76
2017-08-31T02:08:55.364Z,1002.8
2017-08-31T02:09:35.933Z,1002.8
2017-08-31T02:10:16.523Z,1002.84
2017-08-31T02:10:57.134Z,1002.82
2017-08-31T02:11:37.712Z,1002.86
2017-08-31T02:12:18.294Z,1002.89
2017-08-31T02:12:58.862Z,1002.84
2017-08-31T02:13:39.425Z,1002.91
2017-08-31T02:14:19.991Z,1002.93
2017-08-31T02:15:00.569Z,1002.94
2017-08-31T02:15:41.133Z,1002.96
2017-08-31T02:16:21.717Z,1002.95
2017-08-31T02:17:02.292Z,1002.96
2017-08-31T02:17:42.854Z,1003.03
2017-08-31T02:18:23.423Z,1003.01
2017-08-31T02:19:03.996Z,1003.07
2017-08-31T02:19:44.558Z,1003.08
2017-08-31T02:20:25.162Z,1003.14
2017-08-31T02:21:05.778Z,1003.19
2017-08-31T02:21:46.363Z,1003.24
2017-08-31T02:22:26.952Z,1003.24
2017-08-31T02:23:07.507Z,1003.21
2017-08-31T02:23:48.120Z,1003.28
2017-08-31T02:24:28.696Z,1003.33
2017-08-31T02:25:09.263Z,1003.34
2017-08-31T02:25:49.881Z,1003.42
2017-08-31T02:26:30.486Z,1003.37
2017-08-31T02:27:11.066Z,1003.4
2017-08-31T02:27:51.636Z,1003.44
2017-08-31T02:28:32.222Z,1003.4
2017-08-31T02:29:12.821Z,1003.38
2017-08-31T02:29:53.397Z,1003.4
2017-08-31T02:30:33.984Z,1003.4
2017-08-31T02:31:14.562Z,1003.36
2017-08-31T02:31:55.136Z,1003.41
2017-08-31T02:32:35.722Z,1003.4
2017-08-31T02:33:16.301Z,1003.34
2017-08-31T02:33:56.886Z,1003.35
2017-08-31T02:34:37.470Z,1003.31
2017-08-31T02:35:18.056Z,1003.29
2017-08-31T02:35:58.630Z,1003.28
2017-08-31T02:36:39.225Z,1003.25
2017-08-31T02:37:19.802Z,1003.31
2017-08-31T02:38:00.395Z,1003.23
2017-08-31T02:38:40.981Z,1003.25
2017-08-31T02:39:21.554Z,1003.29
2017-08-31T02:40:02.145Z,1003.26
2017-08-31T02:40:42.727Z,1003.25
2017-08-31T02:41:23.315Z,1003.28
2017-08-31T02:42:03.866Z,1003.28
2017-08-31T02:42:44.463Z,1003.24
2017-08-31T02:43:25.017Z,1003.25
2017-08-31T02:44:05.615Z,1003.21
2017-08-31T02:44:46.159Z,1003.23
2017-08-31T02:45:26.753Z,1003.21
2017-08-31T02:46:07.377Z,1003.23
2017-08-31T02:46:47.978Z,1003.2
2017-08-31T02:47:28.564Z,1003.19
2017-08-31T02:48:09.261Z,1003.12
2017-08-31T02:48:49.851Z,1003.2
2017-08-31T02:49:30.428Z,1003.14
2017-08-31T02:50:10.998Z,1003.12
2017-08-31T02:50:51.564Z,1003.11
2017-08-31T02:51:32.168Z,1003.12
2017-08-31T02:52:12.772Z,1003.13
2017-08-31T02:52:53.360Z,1003.12
2017-08-31T02:53:33.933Z,1003.14
2017-08-31T02:54:14.501Z,1003.11
2017-08-31T02:54:55.148Z,1003.14
2017-08-31T02:55:35.723Z,1003.09
2017-08-31T02:56:16.308Z,1003.12
2017-08-31T02:56:56.889Z,1003.14
2017-08-31T02:57:37.545Z,1003.13
2017-08-31T02:58:18.164Z,1003.1
2017-08-31T02:58:58.743Z,1003.1
2017-08-31T02:59:39.359Z,1003.12
2017-08-31T03:00:19.933Z,1003.12
2017-08-31T03:01:00.510Z,1003.05
2017-08-31T03:01:41.086Z,1003.1
2017-08-31T03:02:21.647Z,1003.09
2017-08-31T03:03:02.222Z,1003.04
2017-08-31T03:03:42.785Z,1002.99
2017-08-31T03:04:23.362Z,1002.97
2017-08-31T03:05:03.943Z,1003.04
2017-08-31T03:05:44.505Z,1003.04
2017-08-31T03:06:25.076Z,1003.06
2017-08-31T03:07:05.634Z,1003.04
2017-08-31T03:07:46.209Z,1003.03
2017-08-31T03:08:26.803Z,1003.03
2017-08-31T03:09:07.366Z,1003.02
2017-08-31T03:09:47.943Z,1003.02
2017-08-31T03:10:28.495Z,1003.05
2017-08-31T03:11:09.080Z,1003.05
2017-08-31T03:11:49.690Z,1003.06
2017-08-31T03:12:30.258Z,1003.06
2017-08-31T03:13:10.832Z,1003.05
2017-08-31T03:13:51.428Z,1003.15
2017-08-31T03:14:32.031Z,1003.12
2017-08-31T03:15:12.591Z,1003.14
2017-08-31T03:15:53.204Z,1003.13
2017-08-31T03:16:33.777Z,1003.18
2017-08-31T03:17:14.359Z,1003.16
2017-08-31T03:17:54.925Z,1003.17
2017-08-31T03:18:35.505Z,1003.17
2017-08-31T03:19:16.088Z,1003.14
2017-08-31T03:19:56.717Z,1003.1
2017-08-31T03:20:37.315Z,1003.13
2017-08-31T03:21:17.868Z,1003.14
2017-08-31T03:21:58.531Z,1003.13
2017-08-31T03:22:39.103Z,1003.13
2017-08-31T03:23:19.684Z,1003.09
2017-08-31T03:24:00.270Z,1003.07
2017-08-31T03:24:40.842Z,1003.03
2017-08-31T03:25:21.423Z,1003.01
2017-08-31T03:26:01.994Z,1003.09
2017-08-31T03:26:42.583Z,1003.02
2017-08-31T03:27:23.141Z,1003.07
2017-08-31T03:28:03.698Z,1003.06
2017-08-31T03:28:44.280Z,1003.12
2017-08-31T03:29:24.888Z,1003.09
2017-08-31T03:30:05.462Z,1003.07
2017-08-31T03:30:46.036Z,1003.11
2017-08-31T03:31:26.678Z,1003.08
2017-08-31T03:32:07.234Z,1003.15
2017-08-31T03:32:47.838Z,1003.12
2017-08-31T03:33:28.408Z,1003.16
2017-08-31T03:34:09.008Z,1003.16
2017-08-31T03:34:49.596Z,1003.13
2017-08-31T03:35:30.199Z,1003.22
2017-08-31T03:36:10.834Z,1003.2
2017-08-31T03:36:51.401Z,1003.24
2017-08-31T03:37:32.006Z,1003.24
2017-08-31T03:38:12.595Z,1003.23
2017-08-31T03:38:53.183Z,1003.23
2017-08-31T03:39:33.748Z,1003.2
2017-08-31T03:40:14.363Z,1003.2
2017-08-31T03:40:54.960Z,1003.22
2017-08-31T03:41:35.587Z,1003.21
2017-08-31T03:42:16.151Z,1003.22
2017-08-31T03:42:56.715Z,1003.26
2017-08-31T03:43:37.285Z,1003.26
2017-08-31T03:44:17.882Z,1003.34
2017-08-31T03:44:58.503Z,1003.27
2017-08-31T03:45:39.086Z,1003.31
2017-08-31T03:46:19.672Z,1003.29
2017-08-31T03:47:00.285Z,1003.33
2017-08-31T03:47:40.872Z,1003.31
2017-08-31T03:48:21.483Z,1003.34
2017-08-31T03:49:02.098Z,1003.35
2017-08-31T03:49:42.637Z,1003.35
2017-08-31T03:50:23.220Z,1003.39
2017-08-31T03:51:03.810Z,1003.37
2017-08-31T03:51:44.388Z,1003.38
2017-08-31T03:52:24.982Z,1003.4
2017-08-31T03:53:05.600Z,1003.39
2017-08-31T03:53:46.179Z,1003.44
2017-08-31T03:54:26.766Z,1003.44
2017-08-31T03:55:07.327Z,1003.45
2017-08-31T03:55:47.890Z,1003.5
2017-08-31T03:56:28.492Z,1003.47
2017-08-31T03:57:09.047Z,1003.48
2017-08-31T03:57:49.616Z,1003.45
2017-08-31T03:58:30.181Z,1003.49
2017-08-31T03:59:10.754Z,1003.43
2017-08-31T03:59:51.335Z,1003.49
2017-08-31T04:00:31.960Z,1003.46
2017-08-31T04:01:12.538Z,1003.53
2017-08-31T04:01:53.121Z,1003.47
2017-08-31T04:02:33.712Z,1003.47
2017-08-31T04:03:14.287Z,1003.51
2017-08-31T04:03:54.855Z,1003.48
2017-08-31T04:04:35.431Z,1003.52
2017-08-31T04:05:16.010Z,1003.47
2017-08-31T04:05:56.593Z,1003.5
2017-08-31T04:06:37.157Z,1003.48
2017-08-31T04:07:17.720Z,1003.48
2017-08-31T04:07:58.296Z,1003.49
2017-08-31T04:08:38.870Z,1003.46
2017-08-31T04:09:19.473Z,1003.47
2017-08-31T04:10:00.039Z,1003.44
2017-08-31T04:10:40.661Z,1003.43
2017-08-31T04:11:21.245Z,1003.41
2017-08-31T04:12:01.823Z,1003.38
2017-08-31T04:12:42.411Z,1003.4
2017-08-31T04:13:22.996Z,1003.41
2017-08-31T04:14:03.590Z,1003.37
2017-08-31T04:14:44.189Z,1003.35
2017-08-31T04:15:24.769Z,1003.36
2017-08-31T04:16:05.338Z,1003.37
2017-08-31T04:16:45.918Z,1003.39
2017-08-31T04:17:26.498Z,1003.39
2017-08-31T04:18:07.074Z,1003.42
2017-08-31T04:18:47.634Z,1003.41
2017-08-31T04:19:28.231Z,1003.47
2017-08-31T04:20:08.864Z,1003.48
2017-08-31T04:20:49.436Z,1003.52
2017-08-31T04:21:30.030Z,1003.53
2017-08-31T04:22:10.586Z,1003.55
2017-08-31T04:22:51.162Z,1003.57
2017-08-31T04:23:31.730Z,1003.55
2017-08-31T04:24:12.298Z,1003.55
2017-08-31T04:24:52.893Z,1003.54
2017-08-31T04:25:33.501Z,1003.52
2017-08-31T04:26:14.072Z,1003.51
2017-08-31T04:26:54.658Z,1003.51
2017-08-31T04:27:35.255Z,1003.51
2017-08-31T04:28:15.842Z,1003.57
2017-08-31T04:28:56.477Z,1003.55
2017-08-31T04:29:37.042Z,1003.59
2017-08-31T04:30:17.637Z,1003.6
2017-08-31T04:30:58.200Z,1003.62
2017-08-31T04:31:38.761Z,1003.61
2017-08-31T04:32:19.332Z,1003.63
2017-08-31T04:32:59.908Z,1003.6
2017-08-31T04:33:40.487Z,1003.62
2017-08-31T04:34:21.060Z,1003.62
2017-08-31T04:35:01.657Z,1003.64
2017-08-31T04:35:42.226Z,1003.67
2017-08-31T04:36:22.801Z,1003.67
2017-08-31T04:37:03.406Z,1003.6
2017-08-31T04:37:44.008Z,1003.66
2017-08-31T04:38:24.597Z,1003.62
2017-08-31T04:39:05.178Z,1003.6
2017-08-31T04:39:45.747Z,1003.67
2017-08-31T04:40:26.329Z,1003.61
2017-08-31T04:41:06.925Z,1003.6
2017-08-31T04:41:47.528Z,1003.59
2017-08-31T04:42:28.124Z,1003.59
2017-08-31T04:43:08.683Z,1003.6
2017-08-31T04:43:49.255Z,1003.62
2017-08-31T04:44:29.827Z,1003.57
2017-08-31T04:45:10.418Z,1003.57
2017-08-31T04:45:50.984Z,1003.58
2017-08-31T04:46:31.567Z,1003.59
2017-08-31T04:47:12.148Z,1003.6
2017-08-31T04:47:52.733Z,1003.61
2017-08-31T04:48:33.309Z,1003.62
2017-08-31T04:49:13.894Z,1003.64
2017-08-31T04:49:54.467Z,1003.67
2017-08-31T04:50:35.068Z,1003.63
2017-08-31T04:51:15.650Z,1003.68
2017-08-31T04:51:56.233Z,1003.68
2017-08-31T04:52:36.812Z,1003.66
2017-08-31T04:53:17.404Z,1003.68
2017-08-31T04:53:57.984Z,1003.63
2017-08-31T04:54:38.574Z,1003.65
2017-08-31T04:55:19.175Z,1003.65
2017-08-31T04:55:59.751Z,1003.64
2017-08-31T04:56:40.330Z,1003.71
2017-08-31T04:57:20.903Z,1003.68
2017-08-31T04:58:01.469Z,1003.68
2017-08-31T04:58:42.045Z,1003.69
2017-08-31T04:59:22.624Z,1003.66
2017-08-31T05:00:03.214Z,1003.72
2017-08-31T05:00:43.787Z,1003.72
2017-08-31T05:01:24.362Z,1003.71
2017-08-31T05:02:04.932Z,1003.78
2017-08-31T05:02:45.505Z,1003.79
2017-08-31T05:03:26.103Z,1003.76
2017-08-31T05:04:06.684Z,1003.76
2017-08-31T05:04:47.251Z,1003.78
2017-08-31T05:05:27.826Z,1003.82
2017-08-31T05:06:08.412Z,1003.82
2017-08-31T05:06:48.991Z,1003.83
2017-08-31T05:07:29.613Z,1003.86
2017-08-31T05:08:10.208Z,1003.89
2017-08-31T05:08:50.808Z,1003.88
2017-08-31T05:09:31.376Z,1003.84
2017-08-31T05:10:11.951Z,1003.81
2017-08-31T05:10:52.529Z,1003.81
2017-08-31T05:11:33.139Z,1003.82
2017-08-31T05:12:13.706Z,1003.82
2017-08-31T05:12:54.276Z,1003.79
2017-08-31T05:13:34.856Z,1003.79
2017-08-31T05:14:15.430Z,1003.83
2017-08-31T05:14:56.006Z,1003.75
2017-08-31T05:15:36.594Z,1003.8
2017-08-31T05:16:17.179Z,1003.81
2017-08-31T05:16:57.782Z,1003.83
2017-08-31T05:17:38.364Z,1003.84
2017-08-31T05:18:18.958Z,1003.86
2017-08-31T05:18:59.527Z,1003.85
2017-08-31T05:19:40.116Z,1003.88
2017-08-31T05:20:20.695Z,1003.88
2017-08-31T05:21:01.267Z,1003.89
2017-08-31T05:21:41.842Z,1003.86
2017-08-31T05:22:22.410Z,1003.91
2017-08-31T05:23:02.996Z,1003.86
2017-08-31T05:23:43.559Z,1003.82
2017-08-31T05:24:24.163Z,1003.86
2017-08-31T05:25:04.733Z,1003.86
2017-08-31T05:25:45.317Z,1003.9
2017-08-31T05:26:25.893Z,1003.86
2017-08-31T05:27:06.465Z,1003.9
2017-08-31T05:27:47.049Z,1003.86
2017-08-31T05:28:27.651Z,1003.91
2017-08-31T05:29:08.228Z,1003.91
2017-08-31T05:29:48.808Z,1003.91
2017-08-31T05:30:29.396Z,1003.94
2017-08-31T05:31:09.981Z,1003.93
2017-08-31T05:31:50.543Z,1003.97
2017-08-31T05:32:31.161Z,1003.94
2017-08-31T05:33:11.740Z,1003.96
2017-08-31T05:33:52.305Z,1003.95
2017-08-31T05:34:32.915Z,1003.97
2017-08-31T05:35:13.482Z,1003.96
2017-08-31T05:35:54.070Z,1003.99
2017-08-31T05:36:34.646Z,1003.98
2017-08-31T05:37:15.235Z,1003.95
2017-08-31T05:37:55.831Z,1003.92
2017-08-31T05:38:36.392Z,1003.95
2017-08-31T05:39:16.969Z,1003.94
2017-08-31T05:39:57.539Z,1003.96
2017-08-31T05:40:38.129Z,1004
2017-08-31T05:41:18.708Z,1003.96
2017-08-31T05:41:59.274Z,1003.94
2017-08-31T05:42:39.883Z,1004.01
2017-08-31T05:43:20.448Z,1003.95
2017-08-31T05:44:01.061Z,1003.94
2017-08-31T05:44:41.692Z,1003.95
2017-08-31T05:45:22.293Z,1003.97
2017-08-31T05:46:02.840Z,1003.93
2017-08-31T05:46:43.423Z,1003.95
2017-08-31T05:47:24.048Z,1003.92
2017-08-31T05:48:04.589Z,1003.89
2017-08-31T05:48:45.196Z,1003.94
2017-08-31T05:49:25.769Z,1003.86
2017-08-31T05:50:06.357Z,1003.83
2017-08-31T05:50:46.928Z,1003.83
2017-08-31T05:51:27.501Z,1003.83
2017-08-31T05:52:08.078Z,1003.84
2017-08-31T05:52:48.648Z,1003.82
2017-08-31T05:53:29.222Z,1003.84
2017-08-31T05:54:09.804Z,1003.87
2017-08-31T05:54:50.375Z,1003.91
2017-08-31T05:55:30.953Z,1003.91
2017-08-31T05:56:11.518Z,1003.91
2017-08-31T05:56:52.087Z,1003.93
2017-08-31T05:57:32.670Z,1003.92
2017-08-31T05:58:13.250Z,1003.92
2017-08-31T05:58:53.823Z,1003.91
2017-08-31T05:59:34.400Z,1003.87
2017-08-31T06:00:14.988Z,1003.91
2017-08-31T06:00:55.563Z,1003.86
2017-08-31T06:01:36.143Z,1003.88
2017-08-31T06:02:16.736Z,1003.87
2017-08-31T06:02:57.314Z,1003.9
2017-08-31T06:03:37.898Z,1003.88
2017-08-31T06:04:18.512Z,1003.88
2017-08-31T06:04:59.081Z,1003.89
2017-08-31T06:05:39.689Z,1003.9
2017-08-31T06:06:20.273Z,1003.95
2017-08-31T06:07:00.868Z,1003.94
2017-08-31T06:07:41.456Z,1003.98
2017-08-31T06:08:22.025Z,1003.99
2017-08-31T06:09:02.612Z,1003.98
2017-08-31T06:09:43.192Z,1003.98
2017-08-31T06:10:23.770Z,1003.97
2017-08-31T06:11:04.345Z,1004.05
2017-08-31T06:11:44.914Z,1004.01
2017-08-31T06:12:25.480Z,1004.04
2017-08-31T06:13:06.058Z,1004.02
2017-08-31T06:13:46.641Z,1004.02
2017-08-31T06:14:27.232Z,1004.03
2017-08-31T06:15:07.828Z,1004
2017-08-31T06:15:48.435Z,1003.99
2017-08-31T06:16:29.024Z,1003.94
2017-08-31T06:17:09.598Z,1003.98
2017-08-31T06:17:50.182Z,1003.96
2017-08-31T06:18:30.803Z,1003.96
2017-08-31T06:19:11.376Z,1003.93
2017-08-31T06:19:51.954Z,1003.95
2017-08-31T06:20:32.545Z,1003.95
2017-08-31T06:21:13.132Z,1003.95
2017-08-31T06:21:53.701Z,1003.97
2017-08-31T06:22:34.263Z,1003.97
2017-08-31T06:23:14.849Z,1003.95
2017-08-31T06:23:55.426Z,1003.9
2017-08-31T06:24:36.001Z,1003.91
2017-08-31T06:25:16.589Z,1003.91
2017-08-31T06:25:57.214Z,1003.88
2017-08-31T06:26:37.762Z,1003.87
2017-08-31T06:27:18.346Z,1003.94
2017-08-31T06:27:58.941Z,1003.94
2017-08-31T06:28:39.526Z,1003.91
2017-08-31T06:29:20.114Z,1003.91
2017-08-31T06:30:00.742Z,1003.92
2017-08-31T06:30:41.330Z,1003.91
2017-08-31T06:31:21.909Z,1003.96
2017-08-31T06:32:02.513Z,1003.94
2017-08-31T06:32:43.074Z,1003.97
2017-08-31T06:33:23.695Z,1004.02
2017-08-31T06:34:04.311Z,1003.98
2017-08-31T06:34:44.884Z,1004.03
2017-08-31T06:35:25.467Z,1003.99
2017-08-31T06:36:06.040Z,1003.99
2017-08-31T06:36:46.627Z,1004.04
2017-08-31T06:37:27.225Z,1004.06
2017-08-31T06:38:07.801Z,1004.01
2017-08-31T06:38:48.391Z,1004.05
2017-08-31T06:39:28.980Z,1004.08
2017-08-31T06:40:09.591Z,1004.08
2017-08-31T06:40:50.180Z,1004.08
2017-08-31T06:41:30.790Z,1004.05
2017-08-31T06:42:11.379Z,1004.1
2017-08-31T06:42:51.996Z,1004.13
2017-08-31T06:43:32.578Z,1004.11
2017-08-31T06:44:13.157Z,1004.13
2017-08-31T06:44:53.748Z,1004.11
2017-08-31T06:45:34.336Z,1004.11
2017-08-31T06:46:14.916Z,1004.11
2017-08-31T06:46:55.503Z,1004.09
2017-08-31T06:47:36.086Z,1004.15
2017-08-31T06:48:16.680Z,1004.15
2017-08-31T06:48:57.254Z,1004.22
2017-08-31T06:49:37.827Z,1004.21
2017-08-31T06:50:18.438Z,1004.23
2017-08-31T06:50:59.004Z,1004.26
2017-08-31T06:51:39.606Z,1004.26
2017-08-31T06:52:20.194Z,1004.29
2017-08-31T06:53:00.775Z,1004.26
2017-08-31T06:53:41.382Z,1004.27
2017-08-31T06:54:21.985Z,1004.28
2017-08-31T06:55:02.565Z,1004.26
2017-08-31T06:55:43.169Z,1004.29
2017-08-31T06:56:23.731Z,1004.35
2017-08-31T06:57:04.326Z,1004.4
2017-08-31T06:57:44.905Z,1004.34
2017-08-31T06:58:25.478Z,1004.34
2017-08-31T06:59:06.062Z,1004.34
2017-08-31T06:59:46.641Z,1004.35
2017-08-31T07:00:27.213Z,1004.35
2017-08-31T07:01:07.792Z,1004.32
2017-08-31T07:01:48.385Z,1004.25
2017-08-31T07:02:28.945Z,1004.23
2017-08-31T07:03:09.522Z,1004.27
2017-08-31T07:03:50.095Z,1004.29
2017-08-31T07:04:30.692Z,1004.35
2017-08-31T07:05:11.270Z,1004.38
2017-08-31T07:05:51.844Z,1004.4
2017-08-31T07:06:32.417Z,1004.41
2017-08-31T07:07:13.021Z,1004.4
2017-08-31T07:07:53.617Z,1004.38
2017-08-31T07:08:34.206Z,1004.36
2017-08-31T07:09:14.783Z,1004.33
2017-08-31T07:09:55.364Z,1004.35
2017-08-31T07:10:35.959Z,1004.4
2017-08-31T07:11:16.559Z,1004.36
2017-08-31T07:11:57.144Z,1004.38
2017-08-31T07:12:37.725Z,1004.42
2017-08-31T07:13:18.304Z,1004.41
2017-08-31T07:13:58.880Z,1004.43
2017-08-31T07:14:39.459Z,1004.44
2017-08-31T07:15:20.039Z,1004.44
2017-08-31T07:16:00.610Z,1004.41
2017-08-31T07:16:41.204Z,1004.44
2017-08-31T07:17:21.809Z,1004.47
2017-08-31T07:18:02.387Z,1004.45
2017-08-31T07:18:42.955Z,1004.43
2017-08-31T07:19:23.538Z,1004.44
2017-08-31T07:20:04.108Z,1004.43
2017-08-31T07:20:44.702Z,1004.44
2017-08-31T07:21:25.285Z,1004.46
2017-08-31T07:22:05.889Z,1004.37
2017-08-31T07:22:46.480Z,1004.41
2017-08-31T07:23:27.063Z,1004.4
2017-08-31T07:24:07.677Z,1004.33
2017-08-31T07:24:48.259Z,1004.34
2017-08-31T07:25:28.843Z,1004.34
2017-08-31T07:26:09.420Z,1004.38
2017-08-31T07:26:49.986Z,1004.34
2017-08-31T07:27:30.565Z,1004.35
2017-08-31T07:28:11.180Z,1004.36
2017-08-31T07:28:51.768Z,1004.38
2017-08-31T07:29:32.363Z,1004.41
2017-08-31T07:30:12.975Z,1004.39
2017-08-31T07:30:53.531Z,1004.41
2017-08-31T07:31:34.123Z,1004.39
2017-08-31T07:32:14.729Z,1004.36
2017-08-31T07:32:55.282Z,1004.41
2017-08-31T07:33:35.885Z,1004.35
2017-08-31T07:34:16.504Z,1004.39
2017-08-31T07:34:57.080Z,1004.42
2017-08-31T07:35:37.668Z,1004.4
2017-08-31T07:36:18.243Z,1004.44
2017-08-31T07:36:58.833Z,1004.42
2017-08-31T07:37:39.410Z,1004.43
2017-08-31T07:38:19.989Z,1004.47
2017-08-31T07:39:00.587Z,1004.47
2017-08-31T07:39:41.178Z,1004.43
2017-08-31T07:40:21.790Z,1004.43
2017-08-31T07:41:02.391Z,1004.47
2017-08-31T07:41:42.974Z,1004.46
2017-08-31T07:42:23.556Z,1004.49
2017-08-31T07:43:04.135Z,1004.44
2017-08-31T07:43:44.709Z,1004.43
2017-08-31T07:44:25.303Z,1004.46
2017-08-31T07:45:05.893Z,1004.49
2017-08-31T07:45:46.503Z,1004.49
2017-08-31T07:46:27.107Z,1004.5
2017-08-31T07:47:07.720Z,1004.47
2017-08-31T07:47:48.308Z,1004.53
2017-08-31T07:48:28.911Z,1004.52
2017-08-31T07:49:09.474Z,1004.51
2017-08-31T07:49:50.078Z,1004.56
2017-08-31T07:50:30.675Z,1004.55
2017-08-31T07:51:11.253Z,1004.6
2017-08-31T07:51:51.847Z,1004.6
2017-08-31T07:52:32.438Z,1004.58
2017-08-31T07:53:13.021Z,1004.61
2017-08-31T07:53:53.616Z,1004.64
2017-08-31T07:54:34.225Z,1004.66
2017-08-31T07:55:14.811Z,1004.72
2017-08-31T07:55:55.388Z,1004.65
2017-08-31T07:56:36.002Z,1004.69
2017-08-31T07:57:16.594Z,1004.68
2017-08-31T07:57:57.196Z,1004.68
2017-08-31T07:58:37.791Z,1004.69
2017-08-31T07:59:18.390Z,1004.7
2017-08-31T07:59:58.963Z,1004.75
2017-08-31T08:00:39.547Z,1004.71
2017-08-31T08:01:20.161Z,1004.67
2017-08-31T08:02:00.743Z,1004.68
2017-08-31T08:02:41.316Z,1004.69
2017-08-31T08:03:21.892Z,1004.66
2017-08-31T08:04:02.485Z,1004.71
2017-08-31T08:04:43.074Z,1004.68
2017-08-31T08:05:23.661Z,1004.71
2017-08-31T08:06:04.248Z,1004.7
2017-08-31T08:06:44.825Z,1004.76
2017-08-31T08:07:25.416Z,1004.74
2017-08-31T08:08:06.026Z,1004.71
2017-08-31T08:08:46.637Z,1004.71
2017-08-31T08:09:27.221Z,1004.72
2017-08-31T08:10:07.827Z,1004.68
2017-08-31T08:10:48.398Z,1004.68
2017-08-31T08:11:29.017Z,1004.68
2017-08-31T08:12:09.689Z,1004.65
2017-08-31T08:12:50.289Z,1004.65